sensor_id;sensor_type;location;lat;lon;timestamp;pressure;altitude;pressure_sealevel;temperature;humidity
43298;BME280;28892;55.640;37.532;2022-08-19T00:01:26;99377.72;;;24.05;39.49
43298;BME280;28892;55.640;37.532;2022-08-19T00:03:52;99386.13;;;24.04;39.63
43298;BME280;28892;55.640;37.532;2022-08-19T00:06:18;99383.44;;;24.04;39.45
43298;BME280;28892;55.640;37.532;2022-08-19T00:08:44;99375.81;;;24.00;39.90
43298;BME280;28892;55.640;37.532;2022-08-19T00:11:11;99387.50;;;24.06;39.75
43298;BME280;28892;55.640;37.532;2022-08-19T00:13:36;99389.38;;;24.06;39.83
43298;BME280;28892;55.640;37.532;2022-08-19T00:16:04;99390.22;;;24.06;40.18
43298;BME280;28892;55.640;37.532;2022-08-19T00:18:32;99388.53;;;24.00;40.69
43298;BME280;28892;55.640;37.532;2022-08-19T00:20:58;99392.59;;;24.03;40.78
43298;BME280;28892;55.640;37.532;2022-08-19T00:23:25;99393.38;;;23.93;40.85
43298;BME280;28892;55.640;37.532;2022-08-19T00:25:51;99393.38;;;23.88;41.28
43298;BME280;28892;55.640;37.532;2022-08-19T00:28:18;99397.16;;;23.86;41.38
43298;BME280;28892;55.640;37.532;2022-08-19T00:30:44;99391.19;;;23.79;41.64
43298;BME280;28892;55.640;37.532;2022-08-19T00:33:10;99400.91;;;23.75;41.67
43298;BME280;28892;55.640;37.532;2022-08-19T00:35:36;99397.13;;;23.76;41.71
43298;BME280;28892;55.640;37.532;2022-08-19T00:38:04;99393.06;;;23.74;41.73
43298;BME280;28892;55.640;37.532;2022-08-19T00:40:32;99400.63;;;23.77;41.88
43298;BME280;28892;55.640;37.532;2022-08-19T00:42:58;99395.22;;;23.71;42.03
43298;BME280;28892;55.640;37.532;2022-08-19T00:45:26;99403.34;;;23.77;42.01
43298;BME280;28892;55.640;37.532;2022-08-19T00:47:53;99405.50;;;23.69;42.28
43298;BME280;28892;55.640;37.532;2022-08-19T00:50:20;99409.84;;;23.70;41.96
43298;BME280;28892;55.640;37.532;2022-08-19T00:52:49;99417.69;;;23.72;41.77
43298;BME280;28892;55.640;37.532;2022-08-19T00:55:19;99417.41;;;23.68;42.17
43298;BME280;28892;55.640;37.532;2022-08-19T00:57:51;99426.88;;;23.66;41.78
43298;BME280;28892;55.640;37.532;2022-08-19T01:00:21;99419.25;;;23.57;42.14
43298;BME280;28892;55.640;37.532;2022-08-19T01:02:47;99426.84;;;23.61;41.76
43298;BME280;28892;55.640;37.532;2022-08-19T01:05:17;99426.88;;;23.66;41.94
43298;BME280;28892;55.640;37.532;2022-08-19T01:07:47;99435.50;;;23.57;42.42
43298;BME280;28892;55.640;37.532;2022-08-19T01:10:19;99437.38;;;23.57;41.82
43298;BME280;28892;55.640;37.532;2022-08-19T01:12:47;99449.03;;;23.52;41.99
43298;BME280;28892;55.640;37.532;2022-08-19T01:15:16;99444.66;;;23.51;41.99
43298;BME280;28892;55.640;37.532;2022-08-19T01:17:44;99444.09;;;23.49;42.30
43298;BME280;28892;55.640;37.532;2022-08-19T01:20:16;99439.53;;;23.50;42.09
43298;BME280;28892;55.640;37.532;2022-08-19T01:22:46;99436.00;;;23.49;42.06
43298;BME280;28892;55.640;37.532;2022-08-19T01:25:15;99433.03;;;23.51;41.91
43298;BME280;28892;55.640;37.532;2022-08-19T01:27:44;99435.72;;;23.51;41.99
43298;BME280;28892;55.640;37.532;2022-08-19T01:30:17;99435.47;;;23.52;42.23
43298;BME280;28892;55.640;37.532;2022-08-19T01:32:43;99438.41;;;23.46;42.25
43298;BME280;28892;55.640;37.532;2022-08-19T01:35:11;99441.09;;;23.40;42.28
43298;BME280;28892;55.640;37.532;2022-08-19T01:40:09;99429.72;;;23.38;42.23
43298;BME280;28892;55.640;37.532;2022-08-19T01:42:36;99416.16;;;23.33;41.90
43298;BME280;28892;55.640;37.532;2022-08-19T01:45:03;99422.28;;;23.23;42.03
43298;BME280;28892;55.640;37.532;2022-08-19T01:47:29;99415.56;;;23.26;42.22
43298;BME280;28892;55.640;37.532;2022-08-19T01:49:55;99417.63;;;23.13;42.33
43298;BME280;28892;55.640;37.532;2022-08-19T01:52:21;99410.56;;;23.12;42.21
43298;BME280;28892;55.640;37.532;2022-08-19T01:54:46;99412.44;;;23.07;42.58
43298;BME280;28892;55.640;37.532;2022-08-19T01:57:14;99406.75;;;23.03;43.10
43298;BME280;28892;55.640;37.532;2022-08-19T01:59:41;99401.53;;;22.96;42.89
43298;BME280;28892;55.640;37.532;2022-08-19T02:02:07;99403.16;;;22.97;42.67
43298;BME280;28892;55.640;37.532;2022-08-19T02:04:34;99410.56;;;23.12;42.28
43298;BME280;28892;55.640;37.532;2022-08-19T02:07:00;99414.91;;;23.13;42.53
43298;BME280;28892;55.640;37.532;2022-08-19T02:09:26;99404.09;;;23.13;42.50
43298;BME280;28892;55.640;37.532;2022-08-19T02:11:52;99408.66;;;23.08;42.73
43298;BME280;28892;55.640;37.532;2022-08-19T02:14:18;99413.78;;;23.04;42.32
43298;BME280;28892;55.640;37.532;2022-08-19T02:16:44;99435.69;;;23.08;42.13
43298;BME280;28892;55.640;37.532;2022-08-19T02:19:10;99449.72;;;22.99;42.46
43298;BME280;28892;55.640;37.532;2022-08-19T02:21:35;99448.03;;;22.88;42.47
43298;BME280;28892;55.640;37.532;2022-08-19T02:24:02;99452.84;;;22.86;42.78
43298;BME280;28892;55.640;37.532;2022-08-19T02:26:28;99453.56;;;22.71;43.07
43298;BME280;28892;55.640;37.532;2022-08-19T02:28:54;99448.72;;;22.73;42.71
43298;BME280;28892;55.640;37.532;2022-08-19T02:31:22;99441.69;;;22.77;43.25
43298;BME280;28892;55.640;37.532;2022-08-19T02:33:49;99441.91;;;22.70;43.16
43298;BME280;28892;55.640;37.532;2022-08-19T02:36:16;99440.28;;;22.69;43.33
43298;BME280;28892;55.640;37.532;2022-08-19T02:38:43;99436.50;;;22.70;43.12
43298;BME280;28892;55.640;37.532;2022-08-19T02:41:15;99437.63;;;22.74;42.82
43298;BME280;28892;55.640;37.532;2022-08-19T02:43:42;99440.81;;;22.66;43.14
43298;BME280;28892;55.640;37.532;2022-08-19T02:46:23;99452.75;;;22.75;43.57
43298;BME280;28892;55.640;37.532;2022-08-19T02:48:51;99442.91;;;22.59;43.18
43298;BME280;28892;55.640;37.532;2022-08-19T02:51:25;99442.13;;;22.64;43.60
43298;BME280;28892;55.640;37.532;2022-08-19T02:53:51;99448.00;;;22.55;43.44
43298;BME280;28892;55.640;37.532;2022-08-19T02:56:18;99459.34;;;22.52;43.97
43298;BME280;28892;55.640;37.532;2022-08-19T02:58:44;99451.53;;;22.56;43.72
43298;BME280;28892;55.640;37.532;2022-08-19T03:01:11;99449.91;;;22.55;43.97
43298;BME280;28892;55.640;37.532;2022-08-19T03:03:44;99440.28;;;22.69;43.07
43298;BME280;28892;55.640;37.532;2022-08-19T03:06:14;99443.75;;;22.65;43.20
43298;BME280;28892;55.640;37.532;2022-08-19T03:08:42;99441.31;;;22.63;43.09
43298;BME280;28892;55.640;37.532;2022-08-19T03:11:20;99439.22;;;22.70;43.57
43298;BME280;28892;55.640;37.532;2022-08-19T03:13:46;99455.25;;;22.50;43.94
43298;BME280;28892;55.640;37.532;2022-08-19T03:16:15;99457.88;;;22.44;44.26
43298;BME280;28892;55.640;37.532;2022-08-19T03:18:41;99462.22;;;22.45;44.36
43298;BME280;28892;55.640;37.532;2022-08-19T03:21:07;99460.59;;;22.44;44.12
43298;BME280;28892;55.640;37.532;2022-08-19T03:23:34;99464.97;;;22.51;44.27
43298;BME280;28892;55.640;37.532;2022-08-19T03:26:03;99462.34;;;22.56;43.93
43298;BME280;28892;55.640;37.532;2022-08-19T03:28:30;99468.50;;;22.51;44.16
43298;BME280;28892;55.640;37.532;2022-08-19T03:31:07;99471.31;;;22.62;44.04
43298;BME280;28892;55.640;37.532;2022-08-19T03:33:34;99460.72;;;22.55;44.07
43298;BME280;28892;55.640;37.532;2022-08-19T03:36:21;99456.00;;;22.72;43.83
43298;BME280;28892;55.640;37.532;2022-08-19T03:38:58;99463.44;;;22.60;43.78
43298;BME280;28892;55.640;37.532;2022-08-19T03:41:29;99457.44;;;22.53;44.14
43298;BME280;28892;55.640;37.532;2022-08-19T03:43:56;99453.63;;;22.49;44.12
43298;BME280;28892;55.640;37.532;2022-08-19T03:46:28;99453.66;;;22.54;44.32
43298;BME280;28892;55.640;37.532;2022-08-19T03:48:56;99453.94;;;22.52;44.01
43298;BME280;28892;55.640;37.532;2022-08-19T03:51:37;99463.16;;;22.56;44.07
43298;BME280;28892;55.640;37.532;2022-08-19T03:54:05;99457.50;;;22.58;43.90
43298;BME280;28892;55.640;37.532;2022-08-19T03:56:34;99458.25;;;22.53;44.46
43298;BME280;28892;55.640;37.532;2022-08-19T03:59:01;99457.16;;;22.49;44.39
43298;BME280;28892;55.640;37.532;2022-08-19T04:01:28;99468.25;;;22.53;44.42
43298;BME280;28892;55.640;37.532;2022-08-19T04:03:54;99461.13;;;22.46;44.67
43298;BME280;28892;55.640;37.532;2022-08-19T04:06:26;99467.69;;;22.51;44.68
43298;BME280;28892;55.640;37.532;2022-08-19T04:08:53;99467.16;;;22.54;44.56
43298;BME280;28892;55.640;37.532;2022-08-19T04:11:26;99467.25;;;22.64;44.96
43298;BME280;28892;55.640;37.532;2022-08-19T04:13:53;99475.59;;;22.57;45.12
43298;BME280;28892;55.640;37.532;2022-08-19T04:16:21;99473.75;;;22.63;44.86
43298;BME280;28892;55.640;37.532;2022-08-19T04:18:48;99470.03;;;22.69;45.00
43298;BME280;28892;55.640;37.532;2022-08-19T04:21:23;99459.25;;;22.74;44.80
43298;BME280;28892;55.640;37.532;2022-08-19T04:23:49;99467.31;;;22.69;44.75
43298;BME280;28892;55.640;37.532;2022-08-19T04:26:20;99463.53;;;22.70;44.82
43298;BME280;28892;55.640;37.532;2022-08-19T04:28:46;99461.69;;;22.76;44.67
43298;BME280;28892;55.640;37.532;2022-08-19T04:31:19;99461.03;;;22.91;44.38
43298;BME280;28892;55.640;37.532;2022-08-19T04:33:45;99467.44;;;22.85;44.23
43298;BME280;28892;55.640;37.532;2022-08-19T04:36:23;99474.84;;;22.95;44.46
43298;BME280;28892;55.640;37.532;2022-08-19T04:38:52;99479.41;;;22.89;44.68
43298;BME280;28892;55.640;37.532;2022-08-19T04:41:18;99482.09;;;22.89;44.27
43298;BME280;28892;55.640;37.532;2022-08-19T04:44:03;99483.44;;;22.92;44.44
43298;BME280;28892;55.640;37.532;2022-08-19T04:46:30;99482.13;;;22.94;44.39
43298;BME280;28892;55.640;37.532;2022-08-19T04:48:58;99484.31;;;22.97;44.45
43298;BME280;28892;55.640;37.532;2022-08-19T04:51:24;99485.47;;;23.07;44.14
43298;BME280;28892;55.640;37.532;2022-08-19T04:53:50;99482.59;;;23.19;43.76
43298;BME280;28892;55.640;37.532;2022-08-19T04:56:19;99485.81;;;23.15;43.71
43298;BME280;28892;55.640;37.532;2022-08-19T04:58:48;99486.69;;;23.26;43.55
43298;BME280;28892;55.640;37.532;2022-08-19T05:01:24;99487.06;;;23.35;43.87
43298;BME280;28892;55.640;37.532;2022-08-19T05:03:52;99484.00;;;23.26;43.46
43298;BME280;28892;55.640;37.532;2022-08-19T05:06:19;99488.13;;;23.29;44.02
43298;BME280;28892;55.640;37.532;2022-08-19T05:08:46;99490.84;;;23.34;43.66
43298;BME280;28892;55.640;37.532;2022-08-19T05:11:21;99490.66;;;23.46;43.54
43298;BME280;28892;55.640;37.532;2022-08-19T05:13:48;99494.22;;;23.52;43.62
43298;BME280;28892;55.640;37.532;2022-08-19T05:16:15;99494.22;;;23.57;43.53
43298;BME280;28892;55.640;37.532;2022-08-19T05:18:41;99493.44;;;23.56;43.40
43298;BME280;28892;55.640;37.532;2022-08-19T05:21:27;99489.09;;;23.55;43.58
43298;BME280;28892;55.640;37.532;2022-08-19T05:24:12;99501.00;;;23.54;43.38
43298;BME280;28892;55.640;37.532;2022-08-19T05:26:40;99498.00;;;23.51;44.09
43298;BME280;28892;55.640;37.532;2022-08-19T05:29:07;99483.94;;;23.54;43.44
43298;BME280;28892;55.640;37.532;2022-08-19T05:31:35;99489.88;;;23.56;43.36
43298;BME280;28892;55.640;37.532;2022-08-19T05:34:02;99490.94;;;23.50;44.15
43298;BME280;28892;55.640;37.532;2022-08-19T05:36:37;99497.75;;;23.52;44.00
43298;BME280;28892;55.640;37.532;2022-08-19T05:39:11;99481.75;;;23.51;43.80
43298;BME280;28892;55.640;37.532;2022-08-19T05:41:55;99482.03;;;23.54;43.91
43298;BME280;28892;55.640;37.532;2022-08-19T05:44:28;99491.78;;;23.55;44.00
43298;BME280;28892;55.640;37.532;2022-08-19T05:47:00;99481.56;;;23.63;43.49
43298;BME280;28892;55.640;37.532;2022-08-19T05:49:26;99491.50;;;23.57;43.96
43298;BME280;28892;55.640;37.532;2022-08-19T05:51:53;99494.03;;;23.64;43.86
43298;BME280;28892;55.640;37.532;2022-08-19T05:54:20;99493.00;;;23.75;43.85
43298;BME280;28892;55.640;37.532;2022-08-19T05:56:50;99491.13;;;23.81;43.78
43298;BME280;28892;55.640;37.532;2022-08-19T05:59:17;99485.75;;;23.91;43.80
43298;BME280;28892;55.640;37.532;2022-08-19T06:01:44;99481.19;;;24.02;43.52
43298;BME280;28892;55.640;37.532;2022-08-19T06:04:12;99480.69;;;24.16;42.68
43298;BME280;28892;55.640;37.532;2022-08-19T06:06:39;99471.22;;;24.13;42.78
43298;BME280;28892;55.640;37.532;2022-08-19T06:09:06;99488.88;;;24.21;42.94
43298;BME280;28892;55.640;37.532;2022-08-19T06:11:45;99482.66;;;24.25;42.86
43298;BME280;28892;55.640;37.532;2022-08-19T06:14:17;99480.47;;;24.22;43.20
43298;BME280;28892;55.640;37.532;2022-08-19T06:16:44;99494.03;;;24.27;43.08
43298;BME280;28892;55.640;37.532;2022-08-19T06:19:13;99484.31;;;24.47;42.63
43298;BME280;28892;55.640;37.532;2022-08-19T06:21:40;99487.56;;;24.44;42.56
43298;BME280;28892;55.640;37.532;2022-08-19T06:24:08;99487.56;;;24.39;42.97
43298;BME280;28892;55.640;37.532;2022-08-19T06:26:37;99494.31;;;24.31;42.57
43298;BME280;28892;55.640;37.532;2022-08-19T06:29:04;99480.50;;;24.38;43.13
43298;BME280;28892;55.640;37.532;2022-08-19T06:31:34;99493.19;;;24.27;42.85
43298;BME280;28892;55.640;37.532;2022-08-19T06:34:01;99489.19;;;24.35;43.07
43298;BME280;28892;55.640;37.532;2022-08-19T06:36:38;99490.53;;;24.42;42.82
43298;BME280;28892;55.640;37.532;2022-08-19T06:39:15;99486.22;;;24.52;42.52
43298;BME280;28892;55.640;37.532;2022-08-19T06:41:45;99493.00;;;24.44;43.21
43298;BME280;28892;55.640;37.532;2022-08-19T06:44:18;99498.41;;;24.39;43.34
43298;BME280;28892;55.640;37.532;2022-08-19T06:46:43;99494.34;;;24.47;42.85
43298;BME280;28892;55.640;37.532;2022-08-19T06:49:10;99489.19;;;24.40;43.06
43298;BME280;28892;55.640;37.532;2022-08-19T06:51:46;99497.59;;;24.49;43.04
43298;BME280;28892;55.640;37.532;2022-08-19T06:54:14;99505.97;;;24.42;43.30
43298;BME280;28892;55.640;37.532;2022-08-19T06:56:40;99497.84;;;24.42;43.02
43298;BME280;28892;55.640;37.532;2022-08-19T06:59:09;99490.56;;;24.53;42.80
43298;BME280;28892;55.640;37.532;2022-08-19T07:01:41;99496.28;;;24.67;42.77
43298;BME280;28892;55.640;37.532;2022-08-19T07:04:08;99496.03;;;24.79;42.07
43298;BME280;28892;55.640;37.532;2022-08-19T07:06:36;99490.91;;;24.82;41.93
43298;BME280;28892;55.640;37.532;2022-08-19T07:09:04;99483.31;;;25.10;41.53
43298;BME280;28892;55.640;37.532;2022-08-19T07:11:30;99493.06;;;25.11;41.29
43298;BME280;28892;55.640;37.532;2022-08-19T07:13:56;99506.09;;;25.15;41.63
43298;BME280;28892;55.640;37.532;2022-08-19T07:16:22;99492.25;;;25.27;40.80
43298;BME280;28892;55.640;37.532;2022-08-19T07:18:49;99494.41;;;25.40;41.01
43298;BME280;28892;55.640;37.532;2022-08-19T07:21:25;99489.75;;;25.66;40.64
43298;BME280;28892;55.640;37.532;2022-08-19T07:23:59;99501.34;;;25.88;39.99
43298;BME280;28892;55.640;37.532;2022-08-19T07:26:27;99493.66;;;26.11;39.80
43298;BME280;28892;55.640;37.532;2022-08-19T07:28:55;99497.72;;;26.18;39.10
43298;BME280;28892;55.640;37.532;2022-08-19T07:31:22;99477.56;;;26.30;39.04
43298;BME280;28892;55.640;37.532;2022-08-19T07:33:50;99506.06;;;26.32;39.29
43298;BME280;28892;55.640;37.532;2022-08-19T07:36:23;99499.97;;;26.51;38.80
43298;BME280;28892;55.640;37.532;2022-08-19T07:38:51;99498.88;;;26.57;38.23
43298;BME280;28892;55.640;37.532;2022-08-19T07:41:21;99497.41;;;26.70;37.92
43298;BME280;28892;55.640;37.532;2022-08-19T07:43:48;99498.50;;;26.69;37.50
43298;BME280;28892;55.640;37.532;2022-08-19T07:46:15;99496.22;;;26.82;37.06
43298;BME280;28892;55.640;37.532;2022-08-19T07:48:44;99515.59;;;26.75;36.74
43298;BME280;28892;55.640;37.532;2022-08-19T07:51:15;99512.00;;;26.85;36.91
43298;BME280;28892;55.640;37.532;2022-08-19T07:53:42;99502.72;;;26.91;37.19
43298;BME280;28892;55.640;37.532;2022-08-19T07:56:10;99503.47;;;27.02;36.65
43298;BME280;28892;55.640;37.532;2022-08-19T07:58:39;99519.66;;;27.17;36.05
43298;BME280;28892;55.640;37.532;2022-08-19T08:01:07;99510.59;;;27.27;35.55
43298;BME280;28892;55.640;37.532;2022-08-19T08:03:36;99511.69;;;27.26;35.39
43298;BME280;28892;55.640;37.532;2022-08-19T08:06:20;99511.59;;;27.37;35.07
43298;BME280;28892;55.640;37.532;2022-08-19T08:09:05;99498.75;;;27.42;35.37
43298;BME280;28892;55.640;37.532;2022-08-19T08:11:43;99496.19;;;27.51;35.24
43298;BME280;28892;55.640;37.532;2022-08-19T08:14:20;99525.66;;;27.44;35.47
43298;BME280;28892;55.640;37.532;2022-08-19T08:16:48;99521.81;;;27.50;35.77
43298;BME280;28892;55.640;37.532;2022-08-19T08:19:18;99509.16;;;27.65;35.39
43298;BME280;28892;55.640;37.532;2022-08-19T08:21:44;99509.31;;;27.73;35.44
43298;BME280;28892;55.640;37.532;2022-08-19T08:24:10;99530.91;;;27.70;35.43
43298;BME280;28892;55.640;37.532;2022-08-19T08:26:36;99519.06;;;27.55;35.27
43298;BME280;28892;55.640;37.532;2022-08-19T08:29:02;99520.19;;;27.49;35.88
43298;BME280;28892;55.640;37.532;2022-08-19T08:31:28;99511.88;;;27.35;35.87
43298;BME280;28892;55.640;37.532;2022-08-19T08:33:54;99520.63;;;27.32;35.77
43298;BME280;28892;55.640;37.532;2022-08-19T08:36:20;99518.75;;;27.27;36.09
43298;BME280;28892;55.640;37.532;2022-08-19T08:38:46;99497.41;;;27.40;35.67
43298;BME280;28892;55.640;37.532;2022-08-19T08:43:49;99522.28;;;27.28;36.52
43298;BME280;28892;55.640;37.532;2022-08-19T08:46:47;99520.56;;;27.37;36.36
43298;BME280;28892;55.640;37.532;2022-08-19T08:49:23;99511.09;;;27.00;36.91
43298;BME280;28892;55.640;37.532;2022-08-19T08:52:12;99506.91;;;27.42;35.73
43298;BME280;28892;55.640;37.532;2022-08-19T08:54:43;99516.22;;;27.07;35.31
43298;BME280;28892;55.640;37.532;2022-08-19T08:57:22;99520.75;;;27.16;35.30
43298;BME280;28892;55.640;37.532;2022-08-19T08:59:50;99519.22;;;27.34;34.90
43298;BME280;28892;55.640;37.532;2022-08-19T09:02:19;99504.56;;;27.60;33.93
43298;BME280;28892;55.640;37.532;2022-08-19T09:04:45;99531.31;;;27.82;33.70
43298;BME280;28892;55.640;37.532;2022-08-19T09:10:32;99532.47;;;28.25;33.74
43298;BME280;28892;55.640;37.532;2022-08-19T09:15:39;99516.16;;;28.39;32.87
43298;BME280;28892;55.640;37.532;2022-08-19T09:18:08;99515.06;;;28.59;32.86
43298;BME280;28892;55.640;37.532;2022-08-19T09:20:33;99528.13;;;28.62;32.60
43298;BME280;28892;55.640;37.532;2022-08-19T09:22:59;99510.78;;;28.72;32.82
43298;BME280;28892;55.640;37.532;2022-08-19T09:25:25;99523.03;;;28.94;32.52
43298;BME280;28892;55.640;37.532;2022-08-19T09:27:52;99517.53;;;29.13;32.67
43298;BME280;28892;55.640;37.532;2022-08-19T09:30:21;99515.41;;;29.24;32.60
43298;BME280;28892;55.640;37.532;2022-08-19T09:32:48;99513.22;;;29.40;32.56
43298;BME280;28892;55.640;37.532;2022-08-19T09:35:14;99516.69;;;29.46;32.38
43298;BME280;28892;55.640;37.532;2022-08-19T09:37:41;99525.94;;;29.50;32.03
43298;BME280;28892;55.640;37.532;2022-08-19T09:40:08;99528.25;;;29.57;31.99
43298;BME280;28892;55.640;37.532;2022-08-19T09:42:36;99519.25;;;29.56;32.07
43298;BME280;28892;55.640;37.532;2022-08-19T09:45:02;99524.50;;;29.52;32.50
43298;BME280;28892;55.640;37.532;2022-08-19T09:47:29;99525.59;;;29.51;32.22
43298;BME280;28892;55.640;37.532;2022-08-19T09:49:54;99530.44;;;29.40;32.06
43298;BME280;28892;55.640;37.532;2022-08-19T09:52:20;99511.66;;;29.53;31.50
43298;BME280;28892;55.640;37.532;2022-08-19T09:54:46;99518.06;;;29.29;30.77
43298;BME280;28892;55.640;37.532;2022-08-19T09:57:12;99522.31;;;29.21;30.79
43298;BME280;28892;55.640;37.532;2022-08-19T09:59:39;99543.66;;;29.33;29.47
43298;BME280;28892;55.640;37.532;2022-08-19T10:02:05;99526.38;;;29.38;28.90
43298;BME280;28892;55.640;37.532;2022-08-19T10:04:31;99535.31;;;29.44;29.17
43298;BME280;28892;55.640;37.532;2022-08-19T10:07:15;99540.88;;;29.52;28.67
43298;BME280;28892;55.640;37.532;2022-08-19T10:09:41;99525.22;;;29.58;28.82
43298;BME280;28892;55.640;37.532;2022-08-19T10:12:07;99530.16;;;29.56;28.43
43298;BME280;28892;55.640;37.532;2022-08-19T10:14:34;99544.03;;;29.60;28.49
43298;BME280;28892;55.640;37.532;2022-08-19T10:17:01;99546.81;;;29.40;28.25
43298;BME280;28892;55.640;37.532;2022-08-19T10:19:28;99509.56;;;29.31;27.91
43298;BME280;28892;55.640;37.532;2022-08-19T10:21:58;99547.28;;;29.28;27.86
43298;BME280;28892;55.640;37.532;2022-08-19T10:24:23;99525.94;;;29.50;27.16
43298;BME280;28892;55.640;37.532;2022-08-19T10:26:51;99544.47;;;29.67;26.94
43298;BME280;28892;55.640;37.532;2022-08-19T10:29:17;99549.34;;;29.98;25.62
43298;BME280;28892;55.640;37.532;2022-08-19T10:31:42;99521.88;;;30.03;25.26
43298;BME280;28892;55.640;37.532;2022-08-19T10:34:08;99525.84;;;29.83;25.28
43298;BME280;28892;55.640;37.532;2022-08-19T10:36:36;99533.94;;;29.60;25.40
43298;BME280;28892;55.640;37.532;2022-08-19T10:39:05;99538.97;;;29.53;25.57
43298;BME280;28892;55.640;37.532;2022-08-19T10:41:34;99549.09;;;29.52;25.50
43298;BME280;28892;55.640;37.532;2022-08-19T10:44:03;99542.63;;;29.48;25.10
43298;BME280;28892;55.640;37.532;2022-08-19T10:46:31;99540.44;;;29.31;25.26
43298;BME280;28892;55.640;37.532;2022-08-19T10:48:59;99536.19;;;29.39;24.73
43298;BME280;28892;55.640;37.532;2022-08-19T10:51:25;99538.38;;;29.23;24.79
43298;BME280;28892;55.640;37.532;2022-08-19T10:54:10;99542.81;;;29.52;24.39
43298;BME280;28892;55.640;37.532;2022-08-19T10:56:36;99549.41;;;29.51;24.25
43298;BME280;28892;55.640;37.532;2022-08-19T10:59:22;99546.34;;;29.52;24.18
43298;BME280;28892;55.640;37.532;2022-08-19T11:01:49;99553.84;;;29.47;24.31
43298;BME280;28892;55.640;37.532;2022-08-19T11:04:16;99550.31;;;29.46;23.73
43298;BME280;28892;55.640;37.532;2022-08-19T11:06:44;99560.16;;;29.42;23.73
43298;BME280;28892;55.640;37.532;2022-08-19T11:09:14;99542.78;;;29.38;23.85
43298;BME280;28892;55.640;37.532;2022-08-19T11:11:41;99528.00;;;29.39;23.95
43298;BME280;28892;55.640;37.532;2022-08-19T11:14:12;99541.03;;;29.61;24.02
43298;BME280;28892;55.640;37.532;2022-08-19T11:16:40;99543.44;;;29.63;24.11
43298;BME280;28892;55.640;37.532;2022-08-19T11:19:07;99538.56;;;29.60;24.06
43298;BME280;28892;55.640;37.532;2022-08-19T11:21:39;99548.59;;;29.64;23.94
43298;BME280;28892;55.640;37.532;2022-08-19T11:24:07;99543.47;;;30.19;23.61
43298;BME280;28892;55.640;37.532;2022-08-19T11:26:34;99544.34;;;29.58;24.66
43298;BME280;28892;55.640;37.532;2022-08-19T11:29:00;99541.88;;;29.42;24.86
43298;BME280;28892;55.640;37.532;2022-08-19T11:31:30;99525.88;;;29.36;24.87
43298;BME280;28892;55.640;37.532;2022-08-19T11:33:57;99527.38;;;29.28;24.81
43298;BME280;28892;55.640;37.532;2022-08-19T11:36:23;99544.59;;;29.42;24.80
43298;BME280;28892;55.640;37.532;2022-08-19T11:38:49;99543.72;;;29.47;25.38
43298;BME280;28892;55.640;37.532;2022-08-19T11:41:17;99541.59;;;29.58;25.40
43298;BME280;28892;55.640;37.532;2022-08-19T11:43:43;99545.69;;;29.75;25.12
43298;BME280;28892;55.640;37.532;2022-08-19T11:46:11;99530.69;;;29.86;24.17
43298;BME280;28892;55.640;37.532;2022-08-19T11:48:37;99531.81;;;29.71;24.30
43298;BME280;28892;55.640;37.532;2022-08-19T11:51:07;99549.22;;;29.61;24.39
43298;BME280;28892;55.640;37.532;2022-08-19T11:53:34;99547.78;;;29.50;25.42
43298;BME280;28892;55.640;37.532;2022-08-19T11:56:00;99558.16;;;29.14;25.53
43298;BME280;28892;55.640;37.532;2022-08-19T11:58:26;99536.47;;;28.90;25.99
43298;BME280;28892;55.640;37.532;2022-08-19T12:00:52;99541.75;;;28.81;25.84
43298;BME280;28892;55.640;37.532;2022-08-19T12:03:18;99535.19;;;28.82;25.73
43298;BME280;28892;55.640;37.532;2022-08-19T12:05:45;99519.72;;;28.78;26.06
43298;BME280;28892;55.640;37.532;2022-08-19T12:08:11;99528.66;;;28.83;26.20
43298;BME280;28892;55.640;37.532;2022-08-19T12:10:39;99542.22;;;28.89;26.18
43298;BME280;28892;55.640;37.532;2022-08-19T12:13:06;99522.09;;;28.84;26.11
43298;BME280;28892;55.640;37.532;2022-08-19T12:15:39;99530.78;;;28.86;26.50
43298;BME280;28892;55.640;37.532;2022-08-19T12:18:07;99520.59;;;28.73;26.68
43298;BME280;28892;55.640;37.532;2022-08-19T12:20:38;99531.56;;;28.68;27.46
43298;BME280;28892;55.640;37.532;2022-08-19T12:23:06;99540.78;;;28.53;27.88
43298;BME280;28892;55.640;37.532;2022-08-19T12:25:32;99520.22;;;28.41;28.12
43298;BME280;28892;55.640;37.532;2022-08-19T12:27:59;99534.59;;;28.28;28.43
43298;BME280;28892;55.640;37.532;2022-08-19T12:30:25;99544.78;;;28.17;28.84
43298;BME280;28892;55.640;37.532;2022-08-19T12:32:51;99526.47;;;28.23;29.15
43298;BME280;28892;55.640;37.532;2022-08-19T12:35:17;99533.56;;;28.24;29.05
43298;BME280;28892;55.640;37.532;2022-08-19T12:37:47;99528.16;;;28.19;29.37
43298;BME280;28892;55.640;37.532;2022-08-19T12:40:15;99556.00;;;28.15;29.76
43298;BME280;28892;55.640;37.532;2022-08-19T12:42:41;99540.50;;;28.11;29.85
43298;BME280;28892;55.640;37.532;2022-08-19T12:45:12;99537.88;;;27.81;30.66
43298;BME280;28892;55.640;37.532;2022-08-19T12:47:40;99539.34;;;27.68;30.62
43298;BME280;28892;55.640;37.532;2022-08-19T12:50:06;99529.03;;;27.65;30.68
43298;BME280;28892;55.640;37.532;2022-08-19T12:52:36;99527.69;;;27.63;31.20
43298;BME280;28892;55.640;37.532;2022-08-19T12:55:08;99531.13;;;27.44;31.49
43298;BME280;28892;55.640;37.532;2022-08-19T12:57:35;99543.59;;;27.50;31.17
43298;BME280;28892;55.640;37.532;2022-08-19T13:00:08;99545.31;;;27.41;31.41
43298;BME280;28892;55.640;37.532;2022-08-19T13:02:42;99548.41;;;27.29;31.33
43298;BME280;28892;55.640;37.532;2022-08-19T13:05:11;99545.03;;;27.42;31.43
43298;BME280;28892;55.640;37.532;2022-08-19T13:07:39;99539.38;;;27.33;31.62
43298;BME280;28892;55.640;37.532;2022-08-19T13:10:07;99541.66;;;27.51;31.33